createdAt,value
2022-12-04T00:02:44.559Z,31.15
2022-12-04T00:05:46.935Z,34.28
2022-12-04T00:08:49.654Z,33.97
2022-12-04T00:11:51.895Z,32.65
2022-12-04T00:15:24.546Z,34.20
2022-12-04T00:18:16.345Z,30.23
2022-12-04T00:21:20.327Z,30.85
2022-12-04T00:24:22.555Z,36.77
2022-12-04T00:27:24.877Z,33.08
2022-12-04T00:30:27.184Z,34.95
2022-12-04T00:33:29.441Z,36.80
2022-12-04T00:36:31.752Z,35.35
2022-12-04T00:39:34.088Z,33.33
2022-12-04T00:42:36.376Z,30.75
2022-12-04T00:45:38.700Z,32.50
2022-12-04T00:48:41.499Z,30.70
2022-12-04T00:51:43.813Z,31.90
2022-12-04T00:54:46.078Z,35.53
2022-12-04T00:57:48.605Z,33.88
2022-12-04T01:00:51.072Z,33.85
2022-12-04T01:03:54.401Z,37.30
2022-12-04T01:07:01.558Z,31.23
2022-12-04T01:10:08.916Z,34.77
2022-12-04T01:13:11.499Z,31.10
2022-12-04T01:16:28.563Z,28.20
2022-12-04T01:19:31.183Z,34.67
2022-12-04T01:22:33.492Z,35.75
2022-12-04T01:25:35.740Z,32.27
2022-12-04T01:28:38.323Z,33.08
2022-12-04T01:31:40.712Z,35.38
2022-12-04T01:34:43.127Z,32.83
2022-12-04T01:37:45.501Z,34.80
2022-12-04T01:40:48.181Z,34.77
2022-12-04T01:44:12.480Z,35.17
2022-12-04T01:47:14.787Z,36.80
2022-12-04T01:50:17.169Z,38.15
2022-12-04T01:53:19.801Z,39.83
2022-12-04T01:56:29.567Z,41.27
2022-12-04T01:59:35.721Z,39.20
2022-12-04T02:02:40.554Z,38.78
2022-12-04T02:05:42.923Z,38.17
2022-12-04T02:08:45.354Z,36.63
2022-12-04T02:12:19.938Z,36.90
2022-12-04T02:15:25.087Z,34.95
2022-12-04T02:18:38.613Z,38.20
2022-12-04T02:21:44.169Z,38.80
2022-12-04T02:25:08.131Z,39.33
2022-12-04T02:28:19.819Z,38.90
2022-12-04T02:31:28.645Z,38.63
2022-12-04T02:34:43.452Z,39.90
2022-12-04T02:38:04.213Z,36.08
2022-12-04T02:41:23.364Z,36.63
2022-12-04T02:44:39.133Z,37.37
2022-12-04T02:47:43.221Z,37.80
2022-12-04T02:50:47.564Z,38.38
2022-12-04T02:53:53.884Z,38.78
2022-12-04T02:56:56.805Z,39.88
2022-12-04T03:00:00.366Z,40.60
2022-12-04T03:03:18.341Z,39.80
2022-12-04T03:06:22.247Z,38.38
2022-12-04T03:09:38.114Z,40.38
2022-12-04T03:13:04.176Z,37.15
2022-12-04T03:16:11.073Z,41.13
2022-12-04T03:19:20.339Z,34.50
2022-12-04T03:22:24.548Z,34.05
2022-12-04T03:25:33.579Z,37.72
2022-12-04T03:29:01.752Z,35.13
2022-12-04T03:32:16.786Z,40.20
2022-12-04T03:35:28.102Z,34.50
2022-12-04T03:38:47.429Z,34.78
2022-12-04T03:41:59.766Z,40.30
2022-12-04T03:45:05.330Z,37.13
2022-12-04T03:48:23.344Z,34.23
2022-12-04T03:52:04.836Z,36.88
2022-12-04T03:55:29.195Z,37.03
2022-12-04T03:58:33.647Z,31.70
2022-12-04T04:01:39.999Z,38.85
2022-12-04T04:04:45.442Z,39.30
2022-12-04T04:07:56.984Z,37.00
2022-12-04T04:11:17.455Z,42.08
2022-12-04T04:15:14.112Z,40.95
2022-12-04T04:18:34.948Z,39.35
2022-12-04T04:21:57.771Z,36.17
2022-12-04T04:25:07.084Z,41.33
2022-12-04T04:28:27.649Z,38.22
2022-12-04T04:31:34.606Z,40.55
2022-12-04T04:35:04.967Z,38.38
2022-12-04T04:38:25.984Z,42.27
2022-12-04T04:41:42.643Z,34.95
2022-12-04T04:44:50.880Z,39.17
2022-12-04T04:48:32.043Z,40.63
2022-12-04T04:51:35.214Z,35.10
2022-12-04T04:54:37.725Z,34.10
2022-12-04T04:57:40.013Z,36.47
2022-12-04T05:00:52.899Z,36.90
2022-12-04T05:03:55.191Z,36.70
2022-12-04T05:06:57.492Z,34.38
2022-12-04T05:09:59.845Z,35.50
2022-12-04T05:13:02.145Z,33.42
2022-12-04T05:16:07.014Z,30.95
2022-12-04T05:19:27.851Z,38.05
2022-12-04T05:22:32.506Z,34.58
2022-12-04T05:25:34.746Z,32.13
2022-12-04T05:28:37.084Z,34.25
2022-12-04T05:31:39.563Z,34.88
2022-12-04T05:34:42.434Z,38.00
2022-12-04T05:37:45.648Z,41.15
2022-12-04T05:40:47.861Z,43.03
2022-12-04T05:43:50.143Z,44.90
2022-12-04T05:46:52.525Z,43.00
2022-12-04T05:49:56.250Z,45.78
2022-12-04T05:52:58.719Z,42.50
2022-12-04T05:56:02.401Z,50.10
2022-12-04T05:59:04.672Z,47.03
2022-12-04T06:02:06.992Z,40.50
2022-12-04T06:05:09.379Z,42.58
2022-12-04T06:08:11.852Z,48.10
2022-12-04T06:11:15.827Z,44.00
2022-12-04T06:14:18.176Z,40.80
2022-12-04T06:17:20.468Z,48.50
2022-12-04T06:20:22.939Z,42.03
2022-12-04T06:23:25.304Z,44.17
2022-12-04T06:26:27.760Z,44.07
2022-12-04T06:29:30.146Z,45.17
2022-12-04T06:32:32.466Z,46.78
2022-12-04T06:35:34.714Z,40.25
2022-12-04T06:38:37.198Z,47.53
2022-12-04T06:41:39.538Z,48.63
2022-12-04T06:44:41.878Z,48.60
2022-12-04T06:47:44.164Z,47.72
2022-12-04T06:50:46.397Z,42.58
2022-12-04T06:53:49.075Z,42.45
2022-12-04T06:56:51.395Z,41.73
2022-12-04T06:59:54.040Z,44.80
2022-12-04T07:02:56.402Z,47.00
2022-12-04T07:05:58.611Z,39.40
2022-12-04T07:09:06.622Z,47.08
2022-12-04T07:12:08.852Z,44.73
2022-12-04T07:15:11.322Z,40.10
2022-12-04T07:18:13.566Z,38.88
2022-12-04T07:21:21.012Z,45.67
2022-12-04T07:24:23.335Z,40.22
2022-12-04T07:27:25.602Z,41.27
2022-12-04T07:30:27.883Z,43.85
2022-12-04T07:33:30.159Z,44.30
2022-12-04T07:36:32.440Z,43.22
2022-12-04T07:39:34.930Z,41.05
2022-12-04T07:42:37.197Z,40.57
2022-12-04T07:45:39.506Z,43.55
2022-12-04T07:48:42.053Z,46.15
2022-12-04T07:51:44.391Z,40.00
2022-12-04T07:54:46.697Z,45.75
2022-12-04T07:57:48.998Z,39.73
2022-12-04T08:00:51.355Z,42.67
2022-12-04T08:03:56.710Z,43.15
2022-12-04T08:06:59.486Z,40.15
2022-12-04T08:10:01.830Z,39.85
2022-12-04T08:13:04.136Z,40.23
2022-12-04T08:16:11.520Z,42.30
2022-12-04T08:19:13.895Z,52.63
2022-12-04T08:22:20.329Z,42.00
2022-12-04T08:25:25.656Z,41.08
2022-12-04T08:28:28.425Z,38.00
2022-12-04T08:31:33.147Z,38.67
2022-12-04T08:34:35.500Z,35.22
2022-12-04T08:37:37.805Z,35.65
2022-12-04T08:40:40.074Z,36.83
2022-12-04T08:43:42.388Z,40.50
2022-12-04T08:46:44.760Z,32.22
2022-12-04T08:49:47.204Z,37.42
2022-12-04T08:52:49.462Z,36.70
2022-12-04T08:55:52.540Z,37.53
2022-12-04T08:58:56.086Z,36.17
2022-12-04T09:01:58.404Z,35.17
2022-12-04T09:05:00.756Z,33.58
2022-12-04T09:08:03.069Z,35.83
2022-12-04T09:11:09.828Z,36.13
2022-12-04T09:14:12.211Z,31.30
2022-12-04T09:17:14.897Z,38.20
2022-12-04T09:20:17.184Z,32.80
2022-12-04T09:23:19.720Z,33.63
2022-12-04T09:26:26.361Z,32.45
2022-12-04T09:29:28.713Z,34.70
2022-12-04T09:32:31.071Z,35.90
2022-12-04T09:35:34.399Z,33.10
2022-12-04T09:38:36.745Z,31.85
2022-12-04T09:42:13.289Z,35.05
2022-12-04T09:45:21.235Z,35.53
2022-12-04T09:48:29.114Z,33.17
2022-12-04T09:51:31.614Z,36.45
2022-12-04T09:54:38.636Z,32.78
2022-12-04T09:57:44.603Z,29.17
2022-12-04T10:00:49.446Z,28.37
2022-12-04T10:03:53.222Z,32.35
2022-12-04T10:07:41.311Z,27.70
2022-12-04T10:11:09.426Z,30.55
2022-12-04T10:14:42.979Z,28.05
2022-12-04T10:18:16.199Z,27.30
2022-12-04T10:21:24.692Z,26.98
2022-12-04T10:24:39.053Z,27.42
2022-12-04T10:27:53.584Z,24.05
2022-12-04T10:30:58.398Z,22.50
2022-12-04T10:34:17.720Z,24.93
2022-12-04T10:37:20.275Z,22.20
2022-12-04T10:40:25.012Z,23.33
2022-12-04T10:43:42.165Z,22.10
2022-12-04T10:46:46.274Z,20.42
2022-12-04T10:49:49.102Z,22.40
2022-12-04T10:52:51.834Z,17.73
2022-12-04T10:55:54.121Z,19.75
2022-12-04T10:59:05.717Z,21.27
2022-12-04T11:02:25.869Z,22.83
2022-12-04T11:05:55.500Z,21.10
2022-12-04T11:08:59.192Z,20.45
2022-12-04T11:12:09.927Z,20.95
2022-12-04T11:15:14.777Z,20.50
2022-12-04T11:18:49.522Z,20.83
2022-12-04T11:21:53.428Z,21.20
2022-12-04T11:24:57.953Z,20.73
2022-12-04T11:28:01.547Z,25.17
2022-12-04T11:31:05.185Z,19.27
2022-12-04T11:34:09.328Z,20.60
2022-12-04T11:37:34.090Z,21.47
2022-12-04T11:40:36.683Z,20.98
2022-12-04T11:43:50.864Z,24.20
2022-12-04T11:46:58.055Z,23.13
2022-12-04T11:50:14.399Z,20.40
2022-12-04T11:53:41.583Z,20.07
2022-12-04T11:56:48.365Z,20.38
2022-12-04T12:00:14.756Z,22.13
2022-12-04T12:03:40.101Z,20.23
2022-12-04T12:07:03.827Z,19.67
2022-12-04T12:10:17.759Z,20.67
2022-12-04T12:14:01.429Z,19.55
2022-12-04T12:17:23.618Z,20.70
2022-12-04T12:20:39.813Z,20.38
2022-12-04T12:23:51.959Z,20.60
2022-12-04T12:27:08.518Z,16.93
2022-12-04T12:30:18.269Z,20.08
2022-12-04T12:33:24.623Z,21.00
2022-12-04T12:36:29.871Z,19.55
2022-12-04T12:40:04.723Z,22.05
2022-12-04T12:43:19.791Z,18.90
2022-12-04T12:46:30.993Z,19.17
2022-12-04T12:49:55.628Z,19.58
2022-12-04T12:53:17.354Z,21.60
2022-12-04T12:56:26.181Z,24.08
2022-12-04T12:59:28.879Z,19.57
2022-12-04T13:02:41.365Z,21.98
2022-12-04T13:05:46.656Z,20.73
2022-12-04T13:09:06.993Z,20.48
2022-12-04T13:12:13.376Z,22.55
2022-12-04T13:15:17.341Z,20.10
2022-12-04T13:18:26.065Z,21.17
2022-12-04T13:21:29.859Z,22.25
2022-12-04T13:24:39.751Z,21.10
2022-12-04T13:27:50.788Z,22.00
2022-12-04T13:31:20.452Z,22.30
2022-12-04T13:34:55.126Z,20.80
2022-12-04T13:38:23.740Z,22.10
2022-12-04T13:41:27.356Z,23.58
2022-12-04T13:44:31.453Z,25.42
2022-12-04T13:47:35.514Z,23.10
2022-12-04T13:50:39.184Z,23.20
2022-12-04T13:53:43.127Z,24.58
2022-12-04T13:56:48.231Z,25.30
2022-12-04T14:00:06.501Z,24.52
2022-12-04T14:03:28.895Z,25.63
2022-12-04T14:06:41.753Z,33.78
2022-12-04T14:09:49.755Z,30.45
2022-12-04T14:12:59.757Z,30.25
2022-12-04T14:16:10.257Z,26.02
2022-12-04T14:19:26.524Z,25.90
2022-12-04T14:22:38.150Z,24.65
2022-12-04T14:25:40.586Z,36.55
2022-12-04T14:28:43.932Z,35.17
2022-12-04T14:31:46.228Z,33.08
2022-12-04T14:34:49.613Z,32.30
2022-12-04T14:37:59.397Z,28.58
2022-12-04T14:41:02.080Z,24.08
2022-12-04T14:44:04.727Z,27.30
2022-12-04T14:47:25.781Z,26.63
2022-12-04T14:50:34.717Z,28.20
2022-12-04T14:54:00.538Z,27.27
2022-12-04T14:57:27.246Z,30.52
2022-12-04T15:00:29.550Z,29.17
2022-12-04T15:03:42.748Z,30.83
2022-12-04T15:06:47.839Z,34.70
2022-12-04T15:10:10.870Z,31.30
2022-12-04T15:13:21.425Z,35.05
2022-12-04T15:16:24.197Z,33.50
2022-12-04T15:19:26.464Z,36.28
2022-12-04T15:22:29.175Z,30.20
2022-12-04T15:25:44.613Z,34.20
2022-12-04T15:28:57.396Z,32.85
2022-12-04T15:32:04.137Z,33.30
2022-12-04T15:35:10.019Z,32.50
2022-12-04T15:38:15.649Z,34.87
2022-12-04T15:41:44.335Z,32.53
2022-12-04T15:45:13.342Z,39.25
2022-12-04T15:48:24.887Z,34.75
2022-12-04T15:51:27.527Z,38.15
2022-12-04T15:54:29.818Z,37.37
2022-12-04T15:57:40.639Z,32.63
2022-12-04T16:00:44.330Z,34.63
2022-12-04T16:03:51.931Z,35.00
2022-12-04T16:06:54.305Z,34.00
2022-12-04T16:10:03.758Z,34.03
2022-12-04T16:13:06.548Z,33.75
2022-12-04T16:16:13.171Z,31.73
2022-12-04T16:19:34.722Z,35.42
2022-12-04T16:22:39.405Z,39.22
2022-12-04T16:25:41.787Z,101.67
2022-12-04T16:28:44.525Z,40.42
2022-12-04T16:31:47.052Z,97.03
2022-12-04T16:34:49.343Z,46.75
2022-12-04T16:37:51.713Z,34.88
2022-12-04T16:40:54.074Z,36.87
2022-12-04T16:43:58.811Z,38.40
2022-12-04T16:47:01.335Z,41.78
2022-12-04T16:50:04.060Z,34.10
2022-12-04T16:53:06.417Z,31.38
2022-12-04T16:56:09.539Z,49.63
2022-12-04T16:59:12.541Z,33.50
2022-12-04T17:02:21.945Z,32.42
2022-12-04T17:05:29.427Z,29.40
2022-12-04T17:08:32.146Z,29.85
2022-12-04T17:11:34.894Z,29.60
2022-12-04T17:14:37.176Z,27.25
2022-12-04T17:17:40.328Z,28.98
2022-12-04T17:20:43.644Z,26.63
2022-12-04T17:23:46.067Z,27.63
2022-12-04T17:26:48.326Z,29.13
2022-12-04T17:29:50.666Z,30.10
2022-12-04T17:32:53.118Z,31.98
2022-12-04T17:35:56.039Z,30.70
2022-12-04T17:38:59.542Z,31.33
2022-12-04T17:42:02.120Z,33.40
2022-12-04T17:45:05.101Z,28.15
2022-12-04T17:48:07.596Z,32.67
2022-12-04T17:51:18.036Z,37.90
2022-12-04T17:54:20.430Z,39.33
2022-12-04T17:57:22.850Z,52.37
2022-12-04T18:00:26.214Z,47.83
2022-12-04T18:03:29.019Z,44.55
2022-12-04T18:06:33.857Z,40.15
2022-12-04T18:09:36.344Z,48.88
2022-12-04T18:12:39.012Z,45.30
2022-12-04T18:15:41.279Z,38.13
2022-12-04T18:18:46.729Z,34.03
2022-12-04T18:21:49.629Z,31.67
2022-12-04T18:24:52.599Z,32.30
2022-12-04T18:27:54.878Z,29.10
2022-12-04T18:31:07.854Z,31.70
2022-12-04T18:34:10.883Z,29.80
2022-12-04T18:37:13.269Z,30.45
2022-12-04T18:40:15.606Z,29.48
2022-12-04T18:43:18.717Z,25.73
2022-12-04T18:46:22.200Z,29.75
2022-12-04T18:49:24.668Z,31.33
2022-12-04T18:52:26.924Z,31.65
2022-12-04T18:55:29.209Z,33.35
2022-12-04T18:58:31.572Z,33.90
2022-12-04T19:01:34.228Z,33.00
2022-12-04T19:04:36.505Z,29.80
2022-12-04T19:07:39.180Z,29.88
2022-12-04T19:10:41.530Z,37.58
2022-12-04T19:13:43.840Z,33.60
2022-12-04T19:16:46.524Z,45.33
2022-12-04T19:19:49.044Z,34.60
2022-12-04T19:22:51.324Z,37.20
2022-12-04T19:25:58.117Z,32.08
2022-12-04T19:29:01.966Z,31.17
2022-12-04T19:32:04.452Z,25.55
2022-12-04T19:35:07.125Z,37.50
2022-12-04T19:38:09.959Z,31.33
2022-12-04T19:41:16.763Z,38.15
2022-12-04T19:47:43.728Z,28.77
2022-12-04T19:50:46.005Z,31.00
2022-12-04T19:53:49.212Z,28.67
2022-12-04T19:56:52.721Z,28.48
2022-12-04T19:59:55.311Z,28.27
2022-12-04T20:02:57.978Z,31.25
2022-12-04T20:06:05.169Z,26.70
2022-12-04T20:09:10.622Z,27.55
2022-12-04T20:12:13.311Z,26.55
2022-12-04T20:15:15.799Z,23.93
2022-12-04T20:18:18.206Z,26.67
2022-12-04T20:21:26.327Z,25.67
2022-12-04T20:24:28.739Z,28.13
2022-12-04T20:27:31.021Z,26.35
2022-12-04T20:30:33.361Z,24.77
2022-12-04T20:33:35.729Z,28.88
2022-12-04T20:36:40.673Z,29.20
2022-12-04T20:39:43.109Z,29.25
2022-12-04T20:42:45.586Z,28.60
2022-12-04T20:45:48.012Z,30.30
2022-12-04T20:48:52.110Z,36.67
2022-12-04T20:51:54.626Z,31.40
2022-12-04T20:54:56.898Z,34.55
2022-12-04T20:57:59.220Z,25.15
2022-12-04T21:01:16.281Z,27.03
2022-12-04T21:04:18.987Z,28.95
2022-12-04T21:07:21.231Z,33.78
2022-12-04T21:10:23.544Z,26.52
2022-12-04T21:13:44.428Z,24.90
2022-12-04T21:16:47.685Z,25.50
2022-12-04T21:19:50.705Z,26.42
2022-12-04T21:22:53.028Z,27.63
2022-12-04T21:25:55.955Z,24.27
2022-12-04T21:28:58.650Z,26.08
2022-12-04T21:32:01.087Z,24.57
2022-12-04T21:35:03.682Z,26.58
2022-12-04T21:38:05.951Z,28.48
2022-12-04T21:41:09.285Z,27.35
2022-12-04T21:44:14.607Z,27.15
2022-12-04T21:47:17.527Z,27.93
2022-12-04T21:50:19.774Z,24.75
2022-12-04T21:53:22.455Z,28.08
2022-12-04T21:56:25.354Z,27.45
2022-12-04T21:59:27.863Z,24.40
2022-12-04T22:02:30.338Z,23.00
2022-12-04T22:05:33.119Z,23.38
2022-12-04T22:08:36.858Z,23.02
2022-12-04T22:11:41.878Z,24.27
2022-12-04T22:14:44.148Z,23.02
2022-12-04T22:17:46.625Z,19.33
2022-12-04T22:20:49.252Z,17.85
2022-12-04T22:23:56.308Z,14.57
2022-12-04T22:26:58.629Z,12.60
2022-12-04T22:30:00.884Z,11.10
2022-12-04T22:33:03.299Z,9.03
2022-12-04T22:36:14.076Z,8.60
2022-12-04T22:39:16.433Z,7.38
2022-12-04T22:42:19.043Z,6.15
2022-12-04T22:45:21.304Z,8.63
2022-12-04T22:48:24.669Z,6.27
2022-12-04T22:51:29.792Z,6.68
2022-12-04T22:54:32.206Z,7.75
2022-12-04T22:57:34.605Z,8.05
2022-12-04T23:00:36.866Z,8.20
2022-12-04T23:03:39.617Z,9.90
2022-12-04T23:06:41.893Z,10.43
2022-12-04T23:09:44.271Z,13.52
2022-12-04T23:12:46.627Z,16.05
2022-12-04T23:15:50.276Z,18.23
2022-12-04T23:18:52.958Z,19.20
2022-12-04T23:21:57.459Z,20.42
2022-12-04T23:25:00.196Z,16.00
2022-12-04T23:28:02.457Z,16.27
2022-12-04T23:31:04.994Z,15.68
2022-12-04T23:34:07.871Z,15.70
2022-12-04T23:37:10.302Z,15.98
2022-12-04T23:40:12.879Z,13.75
2022-12-04T23:43:18.576Z,14.60
2022-12-04T23:46:23.649Z,14.90
2022-12-04T23:49:26.028Z,14.63
2022-12-04T23:52:28.698Z,18.60
2022-12-04T23:55:34.227Z,16.60
2022-12-04T23:58:37.582Z,17.50
